Empire State — WDE9268 — position and weather

sailwx.info

Track history (hours):
 
Tides and Currents Weather Stations Pressure Air Temp Water Temp Dewpoint Dewpoint Depression Visibility Wind Speed Wind Dir Waves Ship Positions

Empire State

Owner: Port Imperial Ferry, Weehawken, NJ. More information available from US FCC via Universal Licensing System and Coast Guard Vessel Documentation Center.

Last reported at 2018-Aug-14 23:03 UTC. Time now 2018-Aug-14 23:44 UTC.
Position N 40°44' W 074°02'.

Length 23 m; draft 2 m.

Type: Passenger vessel. MMSI: 367415390.

Date/timePositionNaut miles runAvg speedWind from/ knotsBaromVisibWave heightAir tempDewpointWater temp
2018-Aug-14 23:03N 40°44' W 074°02'0 0.4
2018-Aug-14 23:00N 40°44' W 074°02'2 3.0
2018-Aug-14 22:30N 40°43' W 074°01'1 2.0
2018-Aug-14 22:00N 40°42' W 074°00'2 4.2
2018-Aug-14 21:30N 40°44' W 074°01'2 3.8
2018-Aug-14 21:00N 40°42' W 074°01'1 1.5
2018-Aug-14 20:30N 40°42' W 074°00'2 4.3
2018-Aug-14 20:00N 40°44' W 074°02'1 2.9
2018-Aug-14 19:30N 40°43' W 074°01'1 0.2
2018-Aug-14 13:37N 40°44' W 074°02'0 3.4
2018-Aug-14 13:30N 40°44' W 074°01'0 0.6
2018-Aug-14 13:00N 40°44' W 074°02'2 4.1
2018-Aug-14 12:30N 40°42' W 074°00'1 2.4
2018-Aug-14 12:00N 40°43' W 074°02'1 2.6
2018-Aug-14 11:30N 40°44' W 074°02'2 4.2
2018-Aug-14 11:00N 40°42' W 074°00'1 1.8
2018-Aug-14 10:30N 40°42' W 074°01'2 3.5
2018-Aug-14 10:00N 40°44' W 074°02'0 0.0
2018-Aug-14 09:30N 40°44' W 074°02'0 0.0
2018-Aug-13 23:02N 40°44' W 074°02'0 0.6
2018-Aug-13 23:00N 40°44' W 074°02'2 3.2
2018-Aug-13 22:31N 40°43' W 074°01'1 1.8
2018-Aug-13 22:01N 40°42' W 074°00'2 4.0
2018-Aug-13 21:30N 40°44' W 074°01'2 3.2
2018-Aug-13 21:00N 40°42' W 074°01'1 1.7
2018-Aug-13 20:30N 40°42' W 074°00'2 4.4
2018-Aug-13 20:00N 40°44' W 074°02'1 2.8
2018-Aug-13 19:30N 40°43' W 074°02'1 0.3
2018-Aug-13 14:28N 40°44' W 074°02'2 4.8
2018-Aug-13 13:59N 40°46' W 074°01'3 5.4
2018-Aug-13 13:30N 40°44' W 074°01'0 0.7
2018-Aug-13 13:00N 40°44' W 074°02'2 4.2
2018-Aug-13 12:30N 40°42' W 074°00'1 2.2
2018-Aug-13 12:00N 40°43' W 074°02'1 3.0
2018-Aug-13 11:30N 40°44' W 074°02'2 4.2
2018-Aug-13 11:00N 40°42' W 074°00'1 2.1
2018-Aug-13 10:30N 40°43' W 074°02'2 3.1
2018-Aug-13 10:00N 40°44' W 074°02'0 0.0
2018-Aug-13 09:30N 40°44' W 074°02'  
2018-Aug-10 23:00N 40°44' W 074°02'1 2.2
2018-Aug-10 22:30N 40°43' W 074°01'1 2.5
2018-Aug-10 22:00N 40°42' W 074°00'2 4.4
2018-Aug-10 21:31N 40°44' W 074°02'2 3.8
2018-Aug-10 21:00N 40°42' W 074°01'1 1.5
2018-Aug-10 20:30N 40°42' W 074°00'2 4.3
2018-Aug-10 20:00N 40°44' W 074°02'1 2.8
2018-Aug-10 19:31N 40°43' W 074°02'1 0.3
2018-Aug-10 14:33N 40°44' W 074°02'0 3.5
2018-Aug-10 14:30N 40°44' W 074°01'2 3.7
2018-Aug-10 13:55N 40°46' W 074°01'3 6.8
2018-Aug-10 13:31N 40°44' W 074°01'1 1.2
2018-Aug-10 13:00N 40°44' W 074°02'2 4.3
2018-Aug-10 12:30N 40°42' W 074°00'1 2.3
2018-Aug-10 12:01N 40°43' W 074°02'1 2.6
2018-Aug-10 11:30N 40°44' W 074°02'2 4.3
2018-Aug-10 11:00N 40°42' W 074°00'1 1.9
2018-Aug-10 10:30N 40°43' W 074°01'2 3.0
2018-Aug-10 10:00N 40°44' W 074°02'0 0.0
2018-Aug-10 09:30N 40°44' W 074°02'0 0.0
2018-Aug-09 23:01N 40°44' W 074°02'0 1.0
2018-Aug-09 23:00N 40°44' W 074°02'1 2.2
2018-Aug-09 22:30N 40°43' W 074°01'1 2.3
2018-Aug-09 22:00N 40°42' W 074°00'2 4.3
2018-Aug-09 21:30N 40°44' W 074°02'2 3.2
2018-Aug-09 21:00N 40°42' W 074°01'1 1.7
2018-Aug-09 20:30N 40°42' W 074°00'2 4.3
2018-Aug-09 20:00N 40°44' W 074°02'1 2.9
2018-Aug-09 19:30N 40°43' W 074°01'1 0.2
2018-Aug-09 13:36N 40°44' W 074°02'1 5.6
2018-Aug-09 13:31N 40°44' W 074°01'1 1.0
2018-Aug-09 13:00N 40°44' W 074°02'2 4.2
2018-Aug-09 12:30N 40°42' W 074°00'1 2.1
2018-Aug-09 12:00N 40°43' W 074°02'1 3.0
2018-Aug-09 11:31N 40°44' W 074°02'2 4.1
2018-Aug-09 11:01N 40°42' W 074°00'1 1.9
2018-Aug-09 10:31N 40°43' W 074°01'1 2.8
2018-Aug-09 10:01N 40°44' W 074°02'0 0.0
2018-Aug-09 09:31N 40°44' W 074°02'0 0.0
2018-Aug-08 23:00N 40°44' W 074°02'1 2.1
2018-Aug-08 22:30N 40°43' W 074°01'1 2.5
2018-Aug-08 22:01N 40°42' W 074°00'2 4.3
2018-Aug-08 21:31N 40°44' W 074°02'1 2.4
2018-Aug-08 21:00N 40°43' W 074°01'1 2.1
2018-Aug-08 20:30N 40°42' W 074°00'2 4.4
2018-Aug-08 20:00N 40°44' W 074°02'1 2.7
2018-Aug-08 19:31N 40°43' W 074°02'1 2.6
2018-Aug-08 19:00N 40°44' W 074°02'0 0.0
2018-Aug-08 18:31N 40°44' W 074°02'0 0.0
2018-Aug-08 14:22N 40°44' W 074°02'2 4.6
2018-Aug-08 13:53N 40°46' W 074°01'3 7.7
2018-Aug-08 13:30N 40°43' W 074°01'1 1.2
2018-Aug-08 13:00N 40°44' W 074°02'2 4.2
2018-Aug-08 12:30N 40°42' W 074°00'1 2.8
2018-Aug-08 12:00N 40°43' W 074°02'1 1.9
2018-Aug-08 11:30N 40°44' W 074°02'2 4.2
2018-Aug-08 11:01N 40°42' W 074°00'1 1.9
2018-Aug-08 10:30N 40°43' W 074°01'1 2.9
2018-Aug-08 10:01N 40°44' W 074°02'0 0.0
2018-Aug-08 09:31N 40°44' W 074°02'0 0.0
2018-Aug-07 23:00N 40°44' W 074°02'1 2.2
2018-Aug-07 22:30N 40°43' W 074°01'1 2.3
2018-Aug-07 22:00N 40°42' W 074°00'2 4.3
2018-Aug-07 21:30N 40°44' W 074°02'2 3.1
2018-Aug-07 21:00N 40°43' W 074°01'1 1.8
2018-Aug-07 20:30N 40°42' W 074°00'2 4.4
2018-Aug-07 20:01N 40°44' W 074°02'1 2.0
2018-Aug-07 19:30N 40°43' W 074°01'1 0.2
2018-Aug-07 14:50N 40°44' W 074°02'0 0.0
2018-Aug-07 13:38N 40°44' W 074°02'1 4.9
2018-Aug-07 13:30N 40°43' W 074°01'1 1.2
2018-Aug-07 13:00N 40°44' W 074°02'2 4.2
2018-Aug-07 12:31N 40°42' W 074°00'1 2.4
2018-Aug-07 12:00N 40°43' W 074°02'1 2.3
2018-Aug-07 11:30N 40°44' W 074°02'2 4.1
2018-Aug-07 11:00N 40°42' W 074°00'1 2.1
2018-Aug-07 10:30N 40°43' W 074°01'1 2.5
2018-Aug-07 10:01N 40°44' W 074°02'0 0.0
2018-Aug-07 09:31N 40°44' W 074°02'0 0.0
2018-Aug-06 23:00N 40°44' W 074°02'1 2.3
2018-Aug-06 22:30N 40°43' W 074°01'1 1.9
2018-Aug-06 21:52N 40°42' W 074°01'2 6.5
2018-Aug-06 21:30N 40°44' W 074°02'2 3.1
2018-Aug-06 21:00N 40°43' W 074°01'1 1.4
2018-Aug-06 20:23N 40°42' W 074°00'2 6.0
2018-Aug-06 20:00N 40°44' W 074°02'1 1.6
2018-Aug-06 19:29N 40°43' W 074°01'1 1.6
2018-Aug-06 18:59N 40°44' W 074°02'0 0.0
2018-Aug-06 18:26N 40°44' W 074°02'0 0.0
2018-Aug-06 18:00N 40°44' W 074°02'0 0.0
2018-Aug-06 17:27N 40°44' W 074°02'0 0.0
2018-Aug-06 17:00N 40°44' W 074°02'0 0.0
2018-Aug-06 16:30N 40°44' W 074°02'0 0.0
2018-Aug-06 16:00N 40°44' W 074°02'0 0.0
2018-Aug-06 15:29N 40°44' W 074°02'0 0.0
2018-Aug-06 15:00N 40°44' W 074°02'0 0.0
2018-Aug-06 14:29N 40°44' W 074°02'2 3.9
2018-Aug-06 13:54N 40°46' W 074°01'3 7.0
2018-Aug-06 13:29N 40°43' W 074°02'1 1.4
2018-Aug-06 12:59N 40°44' W 074°02'2 4.4
2018-Aug-06 12:27N 40°42' W 074°01'1 1.6
2018-Aug-06 11:58N 40°42' W 074°01'2 3.7
2018-Aug-06 11:30N 40°44' W 074°02'2 4.3
2018-Aug-06 10:58N 40°42' W 074°00'1 1.8
2018-Aug-06 10:29N 40°42' W 074°01'2 3.5
2018-Aug-06 10:00N 40°44' W 074°02'  
Track history (hours):
 
Tides and Currents Weather Stations Pressure Air Temp Water Temp Dewpoint Dewpoint Depression Visibility Wind Speed Wind Dir Waves Ship Positions

Empire State

Owner: Port Imperial Ferry, Weehawken, NJ. More information available from US FCC via Universal Licensing System and Coast Guard Vessel Documentation Center.

Last reported at 2018-Aug-14 23:03 UTC. Time now 2018-Aug-14 23:44 UTC.
Position N 40°44' W 074°02'.

Length 23 m; draft 2 m.

Type: Passenger vessel. MMSI: 367415390.

Date/timePositionNaut miles runAvg speedWind from/ knotsBaromVisibWave heightAir tempDewpointWater temp
2018-Aug-14 23:03N 40°44' W 074°02'0 0.4
2018-Aug-14 23:00N 40°44' W 074°02'2 3.0
2018-Aug-14 22:30N 40°43' W 074°01'1 2.0
2018-Aug-14 22:00N 40°42' W 074°00'2 4.2
2018-Aug-14 21:30N 40°44' W 074°01'2 3.8
2018-Aug-14 21:00N 40°42' W 074°01'1 1.5
2018-Aug-14 20:30N 40°42' W 074°00'2 4.3
2018-Aug-14 20:00N 40°44' W 074°02'1 2.9
2018-Aug-14 19:30N 40°43' W 074°01'1 0.2
2018-Aug-14 13:37N 40°44' W 074°02'0 3.4
2018-Aug-14 13:30N 40°44' W 074°01'0 0.6
2018-Aug-14 13:00N 40°44' W 074°02'2 4.1
2018-Aug-14 12:30N 40°42' W 074°00'1 2.4
2018-Aug-14 12:00N 40°43' W 074°02'1 2.6
2018-Aug-14 11:30N 40°44' W 074°02'2 4.2
2018-Aug-14 11:00N 40°42' W 074°00'1 1.8
2018-Aug-14 10:30N 40°42' W 074°01'2 3.5
2018-Aug-14 10:00N 40°44' W 074°02'0 0.0
2018-Aug-14 09:30N 40°44' W 074°02'0 0.0
2018-Aug-13 23:02N 40°44' W 074°02'0 0.6
2018-Aug-13 23:00N 40°44' W 074°02'2 3.2
2018-Aug-13 22:31N 40°43' W 074°01'1 1.8
2018-Aug-13 22:01N 40°42' W 074°00'2 4.0
2018-Aug-13 21:30N 40°44' W 074°01'2 3.2
2018-Aug-13 21:00N 40°42' W 074°01'1 1.7
2018-Aug-13 20:30N 40°42' W 074°00'2 4.4
2018-Aug-13 20:00N 40°44' W 074°02'1 2.8
2018-Aug-13 19:30N 40°43' W 074°02'1 0.3
2018-Aug-13 14:28N 40°44' W 074°02'2 4.8
2018-Aug-13 13:59N 40°46' W 074°01'3 5.4
2018-Aug-13 13:30N 40°44' W 074°01'0 0.7
2018-Aug-13 13:00N 40°44' W 074°02'2 4.2
2018-Aug-13 12:30N 40°42' W 074°00'1 2.2
2018-Aug-13 12:00N 40°43' W 074°02'1 3.0
2018-Aug-13 11:30N 40°44' W 074°02'2 4.2
2018-Aug-13 11:00N 40°42' W 074°00'1 2.1
2018-Aug-13 10:30N 40°43' W 074°02'2 3.1
2018-Aug-13 10:00N 40°44' W 074°02'0 0.0
2018-Aug-13 09:30N 40°44' W 074°02'  
2018-Aug-10 23:00N 40°44' W 074°02'1 2.2
2018-Aug-10 22:30N 40°43' W 074°01'1 2.5
2018-Aug-10 22:00N 40°42' W 074°00'2 4.4
2018-Aug-10 21:31N 40°44' W 074°02'2 3.8
2018-Aug-10 21:00N 40°42' W 074°01'1 1.5
2018-Aug-10 20:30N 40°42' W 074°00'2 4.3
2018-Aug-10 20:00N 40°44' W 074°02'1 2.8
2018-Aug-10 19:31N 40°43' W 074°02'1 0.3
2018-Aug-10 14:33N 40°44' W 074°02'0 3.5
2018-Aug-10 14:30N 40°44' W 074°01'2 3.7
2018-Aug-10 13:55N 40°46' W 074°01'3 6.8
2018-Aug-10 13:31N 40°44' W 074°01'1 1.2
2018-Aug-10 13:00N 40°44' W 074°02'2 4.3
2018-Aug-10 12:30N 40°42' W 074°00'1 2.3
2018-Aug-10 12:01N 40°43' W 074°02'1 2.6
2018-Aug-10 11:30N 40°44' W 074°02'2 4.3
2018-Aug-10 11:00N 40°42' W 074°00'1 1.9
2018-Aug-10 10:30N 40°43' W 074°01'2 3.0
2018-Aug-10 10:00N 40°44' W 074°02'0 0.0
2018-Aug-10 09:30N 40°44' W 074°02'0 0.0
2018-Aug-09 23:01N 40°44' W 074°02'0 1.0
2018-Aug-09 23:00N 40°44' W 074°02'1 2.2
2018-Aug-09 22:30N 40°43' W 074°01'1 2.3
2018-Aug-09 22:00N 40°42' W 074°00'2 4.3
2018-Aug-09 21:30N 40°44' W 074°02'2 3.2
2018-Aug-09 21:00N 40°42' W 074°01'1 1.7
2018-Aug-09 20:30N 40°42' W 074°00'2 4.3
2018-Aug-09 20:00N 40°44' W 074°02'1 2.9
2018-Aug-09 19:30N 40°43' W 074°01'1 0.2
2018-Aug-09 13:36N 40°44' W 074°02'1 5.6
2018-Aug-09 13:31N 40°44' W 074°01'1 1.0
2018-Aug-09 13:00N 40°44' W 074°02'2 4.2
2018-Aug-09 12:30N 40°42' W 074°00'1 2.1
2018-Aug-09 12:00N 40°43' W 074°02'1 3.0
2018-Aug-09 11:31N 40°44' W 074°02'2 4.1
2018-Aug-09 11:01N 40°42' W 074°00'1 1.9
2018-Aug-09 10:31N 40°43' W 074°01'1 2.8
2018-Aug-09 10:01N 40°44' W 074°02'0 0.0
2018-Aug-09 09:31N 40°44' W 074°02'0 0.0
2018-Aug-08 23:00N 40°44' W 074°02'1 2.1
2018-Aug-08 22:30N 40°43' W 074°01'1 2.5
2018-Aug-08 22:01N 40°42' W 074°00'2 4.3
2018-Aug-08 21:31N 40°44' W 074°02'1 2.4
2018-Aug-08 21:00N 40°43' W 074°01'1 2.1
2018-Aug-08 20:30N 40°42' W 074°00'2 4.4
2018-Aug-08 20:00N 40°44' W 074°02'1 2.7
2018-Aug-08 19:31N 40°43' W 074°02'1 2.6
2018-Aug-08 19:00N 40°44' W 074°02'0 0.0
2018-Aug-08 18:31N 40°44' W 074°02'0 0.0
2018-Aug-08 14:22N 40°44' W 074°02'2 4.6
2018-Aug-08 13:53N 40°46' W 074°01'3 7.7
2018-Aug-08 13:30N 40°43' W 074°01'1 1.2
2018-Aug-08 13:00N 40°44' W 074°02'2 4.2
2018-Aug-08 12:30N 40°42' W 074°00'1 2.8
2018-Aug-08 12:00N 40°43' W 074°02'1 1.9
2018-Aug-08 11:30N 40°44' W 074°02'2 4.2
2018-Aug-08 11:01N 40°42' W 074°00'1 1.9
2018-Aug-08 10:30N 40°43' W 074°01'1 2.9
2018-Aug-08 10:01N 40°44' W 074°02'0 0.0
2018-Aug-08 09:31N 40°44' W 074°02'0 0.0
2018-Aug-07 23:00N 40°44' W 074°02'1 2.2
2018-Aug-07 22:30N 40°43' W 074°01'1 2.3
2018-Aug-07 22:00N 40°42' W 074°00'2 4.3
2018-Aug-07 21:30N 40°44' W 074°02'2 3.1
2018-Aug-07 21:00N 40°43' W 074°01'1 1.8
2018-Aug-07 20:30N 40°42' W 074°00'2 4.4
2018-Aug-07 20:01N 40°44' W 074°02'1 2.0
2018-Aug-07 19:30N 40°43' W 074°01'1 0.2
2018-Aug-07 14:50N 40°44' W 074°02'0 0.0
2018-Aug-07 13:38N 40°44' W 074°02'1 4.9
2018-Aug-07 13:30N 40°43' W 074°01'1 1.2
2018-Aug-07 13:00N 40°44' W 074°02'2 4.2
2018-Aug-07 12:31N 40°42' W 074°00'1 2.4
2018-Aug-07 12:00N 40°43' W 074°02'1 2.3
2018-Aug-07 11:30N 40°44' W 074°02'2 4.1
2018-Aug-07 11:00N 40°42' W 074°00'1 2.1
2018-Aug-07 10:30N 40°43' W 074°01'1 2.5
2018-Aug-07 10:01N 40°44' W 074°02'0 0.0
2018-Aug-07 09:31N 40°44' W 074°02'0 0.0
2018-Aug-06 23:00N 40°44' W 074°02'1 2.3
2018-Aug-06 22:30N 40°43' W 074°01'1 1.9
2018-Aug-06 21:52N 40°42' W 074°01'2 6.5
2018-Aug-06 21:30N 40°44' W 074°02'2 3.1
2018-Aug-06 21:00N 40°43' W 074°01'1 1.4
2018-Aug-06 20:23N 40°42' W 074°00'2 6.0
2018-Aug-06 20:00N 40°44' W 074°02'1 1.6
2018-Aug-06 19:29N 40°43' W 074°01'1 1.6
2018-Aug-06 18:59N 40°44' W 074°02'0 0.0
2018-Aug-06 18:26N 40°44' W 074°02'0 0.0
2018-Aug-06 18:00N 40°44' W 074°02'0 0.0
2018-Aug-06 17:27N 40°44' W 074°02'0 0.0
2018-Aug-06 17:00N 40°44' W 074°02'0 0.0
2018-Aug-06 16:30N 40°44' W 074°02'0 0.0
2018-Aug-06 16:00N 40°44' W 074°02'0 0.0
2018-Aug-06 15:29N 40°44' W 074°02'0 0.0
2018-Aug-06 15:00N 40°44' W 074°02'0 0.0
2018-Aug-06 14:29N 40°44' W 074°02'2 3.9
2018-Aug-06 13:54N 40°46' W 074°01'3 7.0
2018-Aug-06 13:29N 40°43' W 074°02'1 1.4
2018-Aug-06 12:59N 40°44' W 074°02'2 4.4
2018-Aug-06 12:27N 40°42' W 074°01'1 1.6
2018-Aug-06 11:58N 40°42' W 074°01'2 3.7
2018-Aug-06 11:30N 40°44' W 074°02'2 4.3
2018-Aug-06 10:58N 40°42' W 074°00'1 1.8
2018-Aug-06 10:29N 40°42' W 074°01'2 3.5
2018-Aug-06 10:00N 40°44' W 074°02'  

Dump ship's entire track history